Time;durP1;ratioP1;P1;durP2;ratioP2;P2;SDS_P1;SDS_P2;PMS_P1;PMS_P2;Temp;Humidity;BMP_temperature;BMP_pressure;BME280_temperature;BME280_humidity;BME280_pressure;Samples;Min_cycle;Max_cycle;Signal;HPM_P1;HPM_P2
2023/08/22 00:00:49;;;;;;;10.73;7.25;;;;;;;;;;5004264;28;20041;-73
2023/08/22 00:03:15;;;;;;;14.20;7.90;;;;;;;;;;5007015;28;20022;-74
2023/08/22 00:05:41;;;;;;;12.15;7.82;;;;;;;;;;5009251;28;20074;-73
2023/08/22 00:08:08;;;;;;;15.15;7.53;;;;;;;;;;4990971;28;20045;-75
2023/08/22 00:10:34;;;;;;;15.38;7.78;;;;;;;;;;4988489;28;20135;-74
2023/08/22 00:13:19;;;;;;;14.13;7.68;;;;;;;;;;4973206;28;20048;-74
2023/08/22 00:15:46;;;;;;;14.82;7.68;;;;;;;;;;5005236;28;20034;-77
2023/08/22 00:18:12;;;;;;;14.88;8.80;;;;;;;;;;5016505;28;20042;-74
2023/08/22 00:20:38;;;;;;;15.18;7.55;;;;;;;;;;4997026;28;20048;-74
2023/08/22 00:23:04;;;;;;;14.45;8.00;;;;;;;;;;5010992;28;20092;-75
2023/08/22 00:25:31;;;;;;;12.05;7.45;;;;;;;;;;5008175;28;20026;-73
2023/08/22 00:27:57;;;;;;;15.00;7.35;;;;;;;;;;4981728;28;20120;-73
2023/08/22 00:30:24;;;;;;;12.70;7.57;;;;;;;;;;4991615;28;20411;-74
2023/08/22 00:32:50;;;;;;;13.20;7.95;;;;;;;;;;4989381;28;20038;-74
2023/08/22 00:35:16;;;;;;;12.45;9.07;;;;;;;;;;5009534;28;20030;-74
2023/08/22 00:37:43;;;;;;;17.58;8.88;;;;;;;;;;4990071;28;20030;-74
2023/08/22 00:40:09;;;;;;;15.80;9.18;;;;;;;;;;5006196;28;20050;-74
2023/08/22 00:42:35;;;;;;;20.15;8.88;;;;;;;;;;5006335;28;20025;-74
2023/08/22 00:45:02;;;;;;;15.63;8.88;;;;;;;;;;4989982;28;20525;-73
2023/08/22 00:47:29;;;;;;;14.82;9.05;;;;;;;;;;5006179;28;20056;-74
2023/08/22 00:49:55;;;;;;;17.33;9.32;;;;;;;;;;4983575;28;20104;-74
2023/08/22 00:52:21;;;;;;;16.67;9.55;;;;;;;;;;4992315;28;20687;-72
2023/08/22 00:54:48;;;;;;;20.55;9.57;;;;;;;;;;5011009;28;20659;-76
2023/08/22 00:57:15;;;;;;;18.17;9.75;;;;;;;;;;4982510;28;20038;-75
2023/08/22 00:59:41;;;;;;;19.67;8.60;;;;;;;;;;5013759;28;20040;-74
2023/08/22 01:02:07;;;;;;;17.58;10.00;;;;;;;;;;4989344;28;20213;-74
2023/08/22 01:04:34;;;;;;;19.67;9.40;;;;;;;;;;5000622;28;20372;-74
2023/08/22 01:07:17;;;;;;;16.35;9.77;;;;;;;;;;4999983;28;20038;-74
2023/08/22 01:09:46;;;;;;;15.85;9.48;;;;;;;;;;5003286;28;20087;-73
2023/08/22 01:12:22;;;;;;;19.25;9.20;;;;;;;;;;4987085;28;20030;-74
2023/08/22 01:14:53;;;;;;;16.00;8.88;;;;;;;;;;5003506;28;20084;-74
2023/08/22 01:17:19;;;;;;;17.80;9.52;;;;;;;;;;4970613;28;20148;-73
2023/08/22 01:19:47;;;;;;;17.15;8.82;;;;;;;;;;4985552;28;20041;-73
2023/08/22 01:22:13;;;;;;;20.25;9.57;;;;;;;;;;5001785;28;20365;-73
2023/08/22 01:24:39;;;;;;;16.60;9.18;;;;;;;;;;4989861;28;20026;-73
2023/08/22 01:27:07;;;;;;;15.65;8.73;;;;;;;;;;4987365;28;20089;-73
2023/08/22 01:29:40;;;;;;;16.55;8.77;;;;;;;;;;4988503;28;20018;-73
2023/08/22 01:32:30;;;;;;;17.38;8.77;;;;;;;;;;4991298;28;20026;-74
2023/08/22 01:34:58;;;;;;;21.52;9.25;;;;;;;;;;5002080;28;20080;-73
2023/08/22 01:37:25;;;;;;;18.65;8.82;;;;;;;;;;5008979;28;20032;-73
2023/08/22 01:39:55;;;;;;;15.65;9.20;;;;;;;;;;4991357;28;20130;-74
2023/08/22 01:42:22;;;;;;;14.40;9.03;;;;;;;;;;4987787;28;20033;-73
2023/08/22 01:44:48;;;;;;;14.13;8.93;;;;;;;;;;4997254;28;20026;-74
2023/08/22 01:47:14;;;;;;;15.95;9.10;;;;;;;;;;5002532;28;20109;-74
2023/08/22 01:49:41;;;;;;;17.40;9.95;;;;;;;;;;5005565;28;20076;-75
2023/08/22 01:52:07;;;;;;;15.57;9.25;;;;;;;;;;5006894;28;20113;-74
2023/08/22 01:54:36;;;;;;;16.08;9.07;;;;;;;;;;4988167;28;20164;-74
2023/08/22 01:57:03;;;;;;;15.43;8.35;;;;;;;;;;5001317;28;20117;-74
2023/08/22 01:59:29;;;;;;;12.60;8.68;;;;;;;;;;5006954;28;20030;-75
2023/08/22 02:01:55;;;;;;;18.08;9.77;;;;;;;;;;5005456;28;20080;-74
2023/08/22 02:04:21;;;;;;;17.65;9.85;;;;;;;;;;5003519;28;20018;-74
2023/08/22 02:06:50;;;;;;;13.55;9.07;;;;;;;;;;4986491;28;20023;-74
2023/08/22 02:09:18;;;;;;;18.40;9.98;;;;;;;;;;5008801;28;20490;-76
2023/08/22 02:11:44;;;;;;;18.02;8.80;;;;;;;;;;5011790;28;20034;-74
2023/08/22 02:14:10;;;;;;;16.55;8.85;;;;;;;;;;5014719;28;20042;-74
2023/08/22 02:16:36;;;;;;;17.00;9.32;;;;;;;;;;5007787;28;20029;-75
2023/08/22 02:19:02;;;;;;;14.85;9.25;;;;;;;;;;5003214;28;20048;-74
2023/08/22 02:21:29;;;;;;;19.17;9.45;;;;;;;;;;5005257;28;20026;-73
2023/08/22 02:23:55;;;;;;;16.15;9.05;;;;;;;;;;5004571;28;20525;-74
2023/08/22 02:26:22;;;;;;;15.48;9.40;;;;;;;;;;5000611;28;20022;-74
2023/08/22 02:28:50;;;;;;;19.35;10.25;;;;;;;;;;5003066;28;20044;-74
2023/08/22 02:31:16;;;;;;;19.38;10.10;;;;;;;;;;5002740;28;20052;-74
2023/08/22 02:33:43;;;;;;;21.08;10.80;;;;;;;;;;5004545;28;20034;-74
2023/08/22 02:36:10;;;;;;;22.90;10.95;;;;;;;;;;4988814;28;20065;-75
2023/08/22 02:38:36;;;;;;;15.88;9.23;;;;;;;;;;4988870;28;20038;-73
2023/08/22 02:41:03;;;;;;;20.48;10.98;;;;;;;;;;5003562;28;20059;-74
2023/08/22 02:43:30;;;;;;;25.58;12.10;;;;;;;;;;4988319;28;20030;-74
2023/08/22 02:45:56;;;;;;;32.30;13.18;;;;;;;;;;4987159;28;20057;-72
2023/08/22 02:48:22;;;;;;;24.35;12.18;;;;;;;;;;5007726;28;20111;-76
2023/08/22 02:50:50;;;;;;;24.95;12.40;;;;;;;;;;4997437;28;20026;-75
2023/08/22 02:53:16;;;;;;;24.20;12.60;;;;;;;;;;4975185;28;20558;-73
2023/08/22 02:55:42;;;;;;;22.70;12.15;;;;;;;;;;4990732;28;20084;-73
2023/08/22 02:58:08;;;;;;;28.20;13.02;;;;;;;;;;5002572;28;20120;-74
2023/08/22 03:00:35;;;;;;;26.95;12.93;;;;;;;;;;5004390;28;20042;-75
2023/08/22 03:03:03;;;;;;;24.58;13.18;;;;;;;;;;5004521;28;20030;-74
2023/08/22 03:05:30;;;;;;;24.05;13.48;;;;;;;;;;4988042;28;20765;-74
2023/08/22 03:07:57;;;;;;;26.33;14.13;;;;;;;;;;4985542;28;20029;-74
2023/08/22 03:10:23;;;;;;;26.63;14.60;;;;;;;;;;5001389;28;20456;-75
2023/08/22 03:12:50;;;;;;;32.55;14.55;;;;;;;;;;5005925;28;20445;-74
2023/08/22 03:15:17;;;;;;;30.92;13.10;;;;;;;;;;4986783;28;20038;-74
2023/08/22 03:17:43;;;;;;;26.33;12.60;;;;;;;;;;5006174;28;20053;-74
2023/08/22 03:20:09;;;;;;;26.13;13.52;;;;;;;;;;4972284;28;20030;-75
2023/08/22 03:22:36;;;;;;;21.45;12.10;;;;;;;;;;4986864;28;20451;-74
2023/08/22 03:25:02;;;;;;;26.58;14.00;;;;;;;;;;4972162;28;20113;-73
2023/08/22 03:27:32;;;;;;;29.33;13.95;;;;;;;;;;4988729;28;20113;-74
2023/08/22 03:29:58;;;;;;;26.35;13.60;;;;;;;;;;5014243;28;20026;-75
2023/08/22 03:32:24;;;;;;;26.80;14.48;;;;;;;;;;4995776;28;20124;-74
2023/08/22 03:34:52;;;;;;;26.60;13.75;;;;;;;;;;4993481;28;20480;-74
2023/08/22 03:37:18;;;;;;;25.17;14.82;;;;;;;;;;5003600;28;20087;-74
2023/08/22 03:39:44;;;;;;;30.25;15.60;;;;;;;;;;4988114;28;20037;-78
2023/08/22 03:42:11;;;;;;;35.40;17.80;;;;;;;;;;4986143;28;20034;-74
2023/08/22 03:44:37;;;;;;;36.13;18.75;;;;;;;;;;4987321;28;20104;-75
2023/08/22 03:47:04;;;;;;;36.15;20.00;;;;;;;;;;4982676;28;20034;-75
2023/08/22 03:49:40;;;;;;;51.55;22.00;;;;;;;;;;4974050;28;20116;-74
2023/08/22 03:52:06;;;;;;;40.83;21.48;;;;;;;;;;4979651;28;20062;-75
2023/08/22 03:54:33;;;;;;;41.53;21.45;;;;;;;;;;4987824;28;20072;-74
2023/08/22 03:56:59;;;;;;;41.45;21.55;;;;;;;;;;4977626;28;20069;-75
2023/08/22 03:59:25;;;;;;;48.50;23.45;;;;;;;;;;4981230;28;20458;-75
2023/08/22 04:01:51;;;;;;;43.63;23.27;;;;;;;;;;4976908;28;20085;-75
2023/08/22 04:04:17;;;;;;;48.53;25.77;;;;;;;;;;4985350;28;20037;-76
2023/08/22 04:06:44;;;;;;;37.35;22.38;;;;;;;;;;5004563;28;20011;-75
2023/08/22 04:09:10;;;;;;;50.35;25.55;;;;;;;;;;4982331;28;20021;-75
2023/08/22 04:11:37;;;;;;;52.90;26.58;;;;;;;;;;4997880;28;20022;-75
2023/08/22 04:14:04;;;;;;;57.97;28.60;;;;;;;;;;4979614;28;20081;-76
2023/08/22 04:16:30;;;;;;;53.05;26.98;;;;;;;;;;5005313;28;20124;-76
2023/08/22 04:18:56;;;;;;;29.48;16.20;;;;;;;;;;5008368;28;20046;-74
2023/08/22 04:21:22;;;;;;;29.95;16.65;;;;;;;;;;4964975;28;21715;-75
2023/08/22 04:23:48;;;;;;;34.08;18.45;;;;;;;;;;4980151;28;20034;-75
2023/08/22 04:26:15;;;;;;;34.53;16.60;;;;;;;;;;4962160;28;20036;-75
2023/08/22 04:28:41;;;;;;;29.98;17.23;;;;;;;;;;4993342;28;20014;-76
2023/08/22 04:31:08;;;;;;;29.02;16.95;;;;;;;;;;4997624;28;20057;-74
2023/08/22 04:33:34;;;;;;;23.13;13.32;;;;;;;;;;4987229;28;20037;-76
2023/08/22 04:36:03;;;;;;;23.00;11.52;;;;;;;;;;4982423;28;20041;-75
2023/08/22 04:38:30;;;;;;;18.48;11.90;;;;;;;;;;4992428;28;20181;-76
2023/08/22 04:41:02;;;;;;;25.88;13.68;;;;;;;;;;4972552;28;20058;-75
2023/08/22 04:44:04;;;;;;;20.98;12.35;;;;;;;;;;4962850;28;20039;-76
2023/08/22 04:46:30;;;;;;;18.13;12.10;;;;;;;;;;4995061;28;20069;-75
2023/08/22 04:48:56;;;;;;;17.38;11.82;;;;;;;;;;5009063;28;20054;-75
2023/08/22 04:51:22;;;;;;;32.13;12.93;;;;;;;;;;5000670;28;20057;-75
2023/08/22 04:53:52;;;;;;;22.73;11.95;;;;;;;;;;4986831;28;20049;-75
2023/08/22 04:56:19;;;;;;;;;;;;;;;;;;5009874;28;20037;-76
2023/08/22 04:58:46;;;;;;;23.08;10.73;;;;;;;;;;5008382;28;19913;-76
2023/08/22 05:01:12;;;;;;;22.60;11.55;;;;;;;;;;5007241;28;20033;-75
2023/08/22 05:03:39;;;;;;;49.35;11.85;;;;;;;;;;5007349;28;20056;-75
2023/08/22 05:06:06;;;;;;;43.03;14.05;;;;;;;;;;5003302;28;20369;-75
2023/08/22 05:08:32;;;;;;;33.63;14.60;;;;;;;;;;5008125;28;20054;-75
2023/08/22 05:10:58;;;;;;;28.45;14.80;;;;;;;;;;5003992;28;20034;-75
2023/08/22 05:13:25;;;;;;;29.90;15.40;;;;;;;;;;4990370;28;20034;-76
2023/08/22 05:15:51;;;;;;;30.42;15.35;;;;;;;;;;4985265;28;20030;-75
2023/08/22 05:18:17;;;;;;;24.58;13.73;;;;;;;;;;5007573;28;20034;-76
2023/08/22 05:20:43;;;;;;;27.05;15.18;;;;;;;;;;4992221;28;20057;-73
2023/08/22 05:23:09;;;;;;;22.00;12.77;;;;;;;;;;4981761;28;20074;-74
2023/08/22 05:25:36;;;;;;;28.92;14.73;;;;;;;;;;4995832;28;20033;-75
2023/08/22 05:28:02;;;;;;;35.38;18.23;;;;;;;;;;4999653;28;20423;-74
2023/08/22 05:30:30;;;;;;;40.13;19.88;;;;;;;;;;5013083;28;20556;-72
2023/08/22 05:32:56;;;;;;;42.22;22.20;;;;;;;;;;5017267;28;20049;-73
2023/08/22 05:35:23;;;;;;;39.90;21.63;;;;;;;;;;5013400;28;20322;-73
2023/08/22 05:37:49;;;;;;;33.30;19.48;;;;;;;;;;4977804;28;20026;-75
2023/08/22 05:40:16;;;;;;;31.08;17.33;;;;;;;;;;4990923;28;20035;-76
2023/08/22 05:42:42;;;;;;;24.92;15.90;;;;;;;;;;4994329;28;20034;-76
2023/08/22 05:45:08;;;;;;;31.63;15.32;;;;;;;;;;5005414;28;20071;-75
2023/08/22 05:47:36;;;;;;;28.60;13.57;;;;;;;;;;5002403;28;20038;-76
2023/08/22 05:50:03;;;;;;;25.05;12.13;;;;;;;;;;5004879;28;20046;-76
2023/08/22 05:52:30;;;;;;;21.58;12.82;;;;;;;;;;4988526;28;20511;-77
2023/08/22 05:54:57;;;;;;;23.95;13.00;;;;;;;;;;4990938;28;20030;-76
2023/08/22 05:57:23;;;;;;;18.48;12.40;;;;;;;;;;4992048;28;20084;-75
2023/08/22 05:59:51;;;;;;;26.92;12.25;;;;;;;;;;4994161;28;20029;-77
2023/08/22 06:02:17;;;;;;;27.50;12.38;;;;;;;;;;5011175;28;20040;-75
2023/08/22 06:04:45;;;;;;;24.52;11.75;;;;;;;;;;4994268;28;20022;-73
2023/08/22 06:07:12;;;;;;;21.88;10.95;;;;;;;;;;5010029;28;20053;-77
2023/08/22 06:09:38;;;;;;;16.13;10.00;;;;;;;;;;4996266;28;20029;-76
2023/08/22 06:12:04;;;;;;;21.58;10.10;;;;;;;;;;4994706;28;20034;-77
2023/08/22 06:14:30;;;;;;;25.73;10.98;;;;;;;;;;4988614;28;20061;-75
2023/08/22 06:16:57;;;;;;;19.05;10.07;;;;;;;;;;4979052;28;20103;-74
2023/08/22 06:19:24;;;;;;;22.20;10.18;;;;;;;;;;4994660;28;20116;-74
2023/08/22 06:21:50;;;;;;;26.48;9.40;;;;;;;;;;4993924;28;20053;-76
2023/08/22 06:24:16;;;;;;;20.85;9.55;;;;;;;;;;4984023;28;20062;-75
2023/08/22 06:26:42;;;;;;;18.85;9.20;;;;;;;;;;4985405;28;20037;-75
2023/08/22 06:29:08;;;;;;;16.48;8.27;;;;;;;;;;4992637;28;20025;-74
2023/08/22 06:31:35;;;;;;;18.20;8.40;;;;;;;;;;4981556;28;20100;-74
2023/08/22 06:34:01;;;;;;;18.83;8.13;;;;;;;;;;4993463;28;20065;-75
2023/08/22 06:36:28;;;;;;;14.48;7.50;;;;;;;;;;4977056;28;20403;-75
2023/08/22 06:38:54;;;;;;;18.52;7.50;;;;;;;;;;4992269;28;20092;-75
2023/08/22 06:41:20;;;;;;;15.90;7.72;;;;;;;;;;4990355;28;20070;-76
2023/08/22 06:43:47;;;;;;;15.73;8.75;;;;;;;;;;4973799;28;20023;-76
2023/08/22 06:46:16;;;;;;;18.90;8.00;;;;;;;;;;5000279;28;20042;-75
2023/08/22 06:48:43;;;;;;;16.00;7.70;;;;;;;;;;4983421;28;20039;-75
2023/08/22 06:51:10;;;;;;;21.65;9.05;;;;;;;;;;4992175;28;20129;-78
2023/08/22 06:53:36;;;;;;;22.20;8.85;;;;;;;;;;5007078;28;20548;-76
2023/08/22 06:56:03;;;;;;;15.40;8.25;;;;;;;;;;5017008;28;20034;-76
2023/08/22 06:58:29;;;;;;;16.42;8.35;;;;;;;;;;4999870;28;20030;-75
2023/08/22 07:00:55;;;;;;;15.05;8.57;;;;;;;;;;5003663;28;20447;-75
2023/08/22 07:03:22;;;;;;;18.30;8.32;;;;;;;;;;5012220;28;20038;-74
2023/08/22 07:05:52;;;;;;;17.17;9.20;;;;;;;;;;4991707;28;20026;-74
2023/08/22 07:08:19;;;;;;;17.58;9.75;;;;;;;;;;4991404;28;20125;-75
2023/08/22 07:10:45;;;;;;;14.52;8.52;;;;;;;;;;5009698;28;20037;-74
2023/08/22 07:13:11;;;;;;;16.52;9.05;;;;;;;;;;5008012;28;20061;-74
2023/08/22 07:15:37;;;;;;;16.27;8.70;;;;;;;;;;5008189;28;20034;-74
2023/08/22 07:18:04;;;;;;;16.67;8.82;;;;;;;;;;5009103;28;20041;-75
2023/08/22 07:20:30;;;;;;;17.65;9.40;;;;;;;;;;5009179;28;20033;-75
2023/08/22 07:22:56;;;;;;;18.00;9.50;;;;;;;;;;5010246;28;20064;-75
2023/08/22 07:25:22;;;;;;;17.67;9.32;;;;;;;;;;5010335;28;20037;-74
2023/08/22 07:27:48;;;;;;;16.67;9.23;;;;;;;;;;5011896;28;20034;-75
2023/08/22 07:30:14;;;;;;;16.83;9.30;;;;;;;;;;5011216;28;20390;-76
2023/08/22 07:32:40;;;;;;;17.52;9.00;;;;;;;;;;5015483;28;20396;-75
2023/08/22 07:35:07;;;;;;;16.08;8.55;;;;;;;;;;4999284;28;20033;-74
2023/08/22 07:37:34;;;;;;;18.70;7.88;;;;;;;;;;5020625;28;20046;-73
2023/08/22 07:40:00;;;;;;;16.33;8.15;;;;;;;;;;5020435;28;20034;-75
2023/08/22 07:42:26;;;;;;;15.15;8.05;;;;;;;;;;5000984;28;20064;-74
2023/08/22 07:44:52;;;;;;;13.55;7.75;;;;;;;;;;5014913;28;20466;-75
2023/08/22 07:47:19;;;;;;;15.05;7.30;;;;;;;;;;5013999;28;20080;-75
2023/08/22 07:49:45;;;;;;;12.48;7.10;;;;;;;;;;5012696;28;20463;-74
2023/08/22 07:52:11;;;;;;;17.75;7.63;;;;;;;;;;5013732;28;20450;-74
2023/08/22 07:54:37;;;;;;;15.80;6.43;;;;;;;;;;5013584;28;20491;-75
2023/08/22 07:57:04;;;;;;;15.10;5.95;;;;;;;;;;4995648;28;20046;-74
2023/08/22 07:59:30;;;;;;;14.48;6.43;;;;;;;;;;5011892;28;20105;-74
2023/08/22 08:01:57;;;;;;;19.25;7.13;;;;;;;;;;4994508;28;20064;-74
2023/08/22 08:04:23;;;;;;;15.75;7.55;;;;;;;;;;5012042;28;20112;-73
2023/08/22 08:06:49;;;;;;;16.60;6.82;;;;;;;;;;5013018;28;20487;-73
2023/08/22 08:09:16;;;;;;;12.95;6.95;;;;;;;;;;5012188;28;20037;-73
2023/08/22 08:11:42;;;;;;;16.65;7.43;;;;;;;;;;5013254;28;20052;-73
2023/08/22 08:14:08;;;;;;;14.27;6.55;;;;;;;;;;5014018;28;20034;-76
2023/08/22 08:16:35;;;;;;;12.75;6.45;;;;;;;;;;5017007;28;20065;-77
2023/08/22 08:19:02;;;;;;;13.07;6.88;;;;;;;;;;4985310;28;20136;-77
2023/08/22 08:21:28;;;;;;;17.88;7.57;;;;;;;;;;5018889;28;20447;-74
2023/08/22 08:23:54;;;;;;;14.25;7.55;;;;;;;;;;5015948;28;20042;-74
2023/08/22 08:26:20;;;;;;;17.70;7.75;;;;;;;;;;4991259;28;20185;-75
2023/08/22 08:28:47;;;;;;;15.38;7.13;;;;;;;;;;4996061;28;20040;-74
2023/08/22 08:31:14;;;;;;;13.50;6.80;;;;;;;;;;5011798;28;20064;-73
2023/08/22 08:33:40;;;;;;;14.85;6.95;;;;;;;;;;5013086;28;20080;-75
2023/08/22 08:36:06;;;;;;;16.65;7.80;;;;;;;;;;5013254;28;20046;-76
2023/08/22 08:38:33;;;;;;;14.88;6.53;;;;;;;;;;5009521;28;20045;-74
2023/08/22 08:41:03;;;;;;;17.92;6.68;;;;;;;;;;5009832;28;20077;-74
2023/08/22 08:43:30;;;;;;;15.02;6.97;;;;;;;;;;5012914;28;20034;-74
2023/08/22 08:45:56;;;;;;;20.38;7.60;;;;;;;;;;4995144;28;20108;-75
2023/08/22 08:48:23;;;;;;;11.65;6.00;;;;;;;;;;5011596;28;20030;-76
2023/08/22 08:50:50;;;;;;;15.80;6.20;;;;;;;;;;5010226;28;20124;-76
2023/08/22 08:53:17;;;;;;;10.10;6.25;;;;;;;;;;5012887;28;20407;-74
2023/08/22 08:55:45;;;;;;;14.32;7.20;;;;;;;;;;4996514;28;20091;-74
2023/08/22 08:58:11;;;;;;;11.57;6.88;;;;;;;;;;5018786;28;20033;-75
2023/08/22 09:00:37;;;;;;;15.57;7.32;;;;;;;;;;5015294;28;20440;-76
2023/08/22 09:03:04;;;;;;;13.15;7.05;;;;;;;;;;5017936;28;20026;-74
2023/08/22 09:05:31;;;;;;;16.92;8.32;;;;;;;;;;5016550;28;20034;-75
2023/08/22 09:08:11;;;;;;;19.73;8.88;;;;;;;;;;5009938;28;20038;-74
2023/08/22 09:10:37;;;;;;;13.93;6.13;;;;;;;;;;5011005;28;20038;-75
2023/08/22 09:13:03;;;;;;;23.33;10.32;;;;;;;;;;5011350;28;20034;-74
2023/08/22 09:15:30;;;;;;;23.60;10.50;;;;;;;;;;5012391;28;20068;-74
2023/08/22 09:17:56;;;;;;;23.08;9.38;;;;;;;;;;5012194;28;20038;-77
2023/08/22 09:20:22;;;;;;;21.27;9.32;;;;;;;;;;5011005;28;20037;-77
2023/08/22 09:22:49;;;;;;;18.30;8.05;;;;;;;;;;5009690;28;20072;-76
2023/08/22 09:25:16;;;;;;;20.98;9.13;;;;;;;;;;5011165;28;20084;-75
2023/08/22 09:27:50;;;;;;;17.40;8.38;;;;;;;;;;5011979;28;20096;-74
2023/08/22 09:30:20;;;;;;;16.20;7.57;;;;;;;;;;5011600;28;20022;-74
2023/08/22 09:32:58;;;;;;;22.13;8.45;;;;;;;;;;5011554;28;20499;-74
2023/08/22 09:35:29;;;;;;;19.27;7.50;;;;;;;;;;5012116;28;20025;-75
2023/08/22 09:37:55;;;;;;;14.80;6.55;;;;;;;;;;5017024;28;20100;-77
2023/08/22 09:40:21;;;;;;;18.25;6.60;;;;;;;;;;5009245;28;20030;-74
2023/08/22 09:42:50;;;;;;;19.15;6.90;;;;;;;;;;4996296;28;20026;-74
2023/08/22 09:45:17;;;;;;;19.10;7.10;;;;;;;;;;5012240;28;20147;-75
2023/08/22 09:47:44;;;;;;;14.52;6.78;;;;;;;;;;4990716;28;20035;-75
2023/08/22 09:50:13;;;;;;;17.88;7.03;;;;;;;;;;5009955;28;20507;-76
2023/08/22 09:52:40;;;;;;;15.23;6.63;;;;;;;;;;5011188;28;20038;-74
2023/08/22 09:55:07;;;;;;;17.77;6.53;;;;;;;;;;5011497;28;20056;-73
2023/08/22 09:57:34;;;;;;;17.75;7.00;;;;;;;;;;4990855;28;20029;-74
2023/08/22 10:00:00;;;;;;;18.13;6.38;;;;;;;;;;5008210;28;20068;-75
2023/08/22 10:02:27;;;;;;;14.65;6.22;;;;;;;;;;4992796;28;20042;-75
2023/08/22 10:04:54;;;;;;;15.23;5.93;;;;;;;;;;5010818;28;20026;-75
2023/08/22 10:07:20;;;;;;;11.73;5.43;;;;;;;;;;5010200;28;20084;-75
2023/08/22 10:09:46;;;;;;;12.63;4.95;;;;;;;;;;5009835;28;20595;-74
2023/08/22 10:12:14;;;;;;;12.05;6.35;;;;;;;;;;5011388;28;20042;-75
2023/08/22 10:14:56;;;;;;;12.38;5.57;;;;;;;;;;4978541;28;20124;-75
2023/08/22 10:17:26;;;;;;;14.90;6.28;;;;;;;;;;5015781;28;20038;-77
2023/08/22 10:19:52;;;;;;;14.80;5.25;;;;;;;;;;4993960;28;20471;-77
2023/08/22 10:22:18;;;;;;;14.88;5.70;;;;;;;;;;5013570;28;20033;-76
2023/08/22 10:24:47;;;;;;;12.95;4.63;;;;;;;;;;5010852;28;20026;-75
2023/08/22 10:27:14;;;;;;;8.02;4.20;;;;;;;;;;4990252;28;20040;-74
2023/08/22 10:29:47;;;;;;;10.35;4.40;;;;;;;;;;5009672;28;20029;-76
2023/08/22 10:32:13;;;;;;;19.42;5.55;;;;;;;;;;4999367;28;20030;-76
2023/08/22 10:34:40;;;;;;;12.38;5.45;;;;;;;;;;5009670;28;20026;-76
2023/08/22 10:37:07;;;;;;;10.68;3.20;;;;;;;;;;5009038;28;20057;-75
2023/08/22 10:39:37;;;;;;;5.85;2.78;;;;;;;;;;4990789;28;20022;-74
2023/08/22 10:42:04;;;;;;;12.70;3.05;;;;;;;;;;4979970;28;20038;-75
2023/08/22 10:44:30;;;;;;;5.45;2.65;;;;;;;;;;4990673;28;20129;-75
2023/08/22 10:47:16;;;;;;;8.65;2.97;;;;;;;;;;5004979;28;20026;-75
2023/08/22 10:49:42;;;;;;;16.52;2.92;;;;;;;;;;4993352;28;20064;-73
2023/08/22 10:52:09;;;;;;;7.85;3.10;;;;;;;;;;5011566;28;20554;-76
2023/08/22 10:54:54;;;;;;;6.25;2.53;;;;;;;;;;4996786;28;20038;-76
2023/08/22 10:57:20;;;;;;;7.18;2.72;;;;;;;;;;5014196;28;20086;-75
2023/08/22 11:00:08;;;;;;;8.75;2.55;;;;;;;;;;4996792;28;20149;-74
2023/08/22 11:02:35;;;;;;;6.10;2.05;;;;;;;;;;4995273;28;20041;-75
2023/08/22 11:05:05;;;;;;;6.53;1.88;;;;;;;;;;5010644;28;20038;-75
2023/08/22 11:07:31;;;;;;;8.75;2.00;;;;;;;;;;5008243;28;20026;-75
2023/08/22 11:09:58;;;;;;;8.15;2.03;;;;;;;;;;5009561;28;20042;-75
2023/08/22 11:12:25;;;;;;;6.28;2.10;;;;;;;;;;4992462;28;20041;-75
2023/08/22 11:14:52;;;;;;;7.07;2.30;;;;;;;;;;4992743;28;20044;-75
2023/08/22 11:17:19;;;;;;;6.93;2.60;;;;;;;;;;5008308;28;20038;-75
2023/08/22 11:19:46;;;;;;;9.05;2.20;;;;;;;;;;4991331;28;20044;-75
2023/08/22 11:22:12;;;;;;;9.95;2.15;;;;;;;;;;4992291;28;20139;-75
2023/08/22 11:24:42;;;;;;;7.78;2.00;;;;;;;;;;5010516;28;20068;-74
2023/08/22 11:27:09;;;;;;;8.32;1.95;;;;;;;;;;5009477;28;20026;-74
2023/08/22 11:29:46;;;;;;;5.40;1.73;;;;;;;;;;4991589;28;20034;-76
2023/08/22 11:32:24;;;;;;;9.15;2.40;;;;;;;;;;5014073;28;20487;-75
2023/08/22 11:34:51;;;;;;;11.68;2.22;;;;;;;;;;5017523;28;20491;-75
2023/08/22 11:37:18;;;;;;;6.20;1.88;;;;;;;;;;4994981;28;20033;-76
2023/08/22 11:39:50;;;;;;;7.50;2.20;;;;;;;;;;5009598;28;20037;-74
2023/08/22 11:42:18;;;;;;;7.85;2.60;;;;;;;;;;5007329;28;20069;-75
2023/08/22 11:44:53;;;;;;;8.00;1.92;;;;;;;;;;5006160;28;20034;-76
2023/08/22 11:47:19;;;;;;;6.60;1.77;;;;;;;;;;5007887;28;20030;-75
2023/08/22 11:49:49;;;;;;;5.90;1.80;;;;;;;;;;5003763;28;20128;-74
2023/08/22 11:52:15;;;;;;;9.20;1.98;;;;;;;;;;5005819;28;20037;-76
2023/08/22 11:54:45;;;;;;;8.48;1.90;;;;;;;;;;5009912;28;20030;-74
2023/08/22 11:57:14;;;;;;;6.67;1.87;;;;;;;;;;5009821;28;20030;-75
2023/08/22 11:59:42;;;;;;;8.15;1.70;;;;;;;;;;4990782;28;20519;-76
2023/08/22 12:02:12;;;;;;;6.22;1.75;;;;;;;;;;4991625;28;20060;-75
2023/08/22 12:04:44;;;;;;;8.30;1.73;;;;;;;;;;4992197;28;20044;-74
2023/08/22 12:07:10;;;;;;;6.82;1.80;;;;;;;;;;4993465;28;20121;-75
2023/08/22 12:09:37;;;;;;;7.32;1.40;;;;;;;;;;5010561;28;20026;-75
2023/08/22 12:12:10;;;;;;;4.85;1.38;;;;;;;;;;4995598;28;20069;-75
2023/08/22 12:14:36;;;;;;;8.57;1.52;;;;;;;;;;5013089;28;20044;-74
2023/08/22 12:17:02;;;;;;;6.13;1.58;;;;;;;;;;5014298;28;20042;-75
2023/08/22 12:19:28;;;;;;;5.47;1.92;;;;;;;;;;4994178;28;20037;-74
2023/08/22 12:21:57;;;;;;;8.98;1.60;;;;;;;;;;5011091;28;20042;-74
2023/08/22 12:24:23;;;;;;;7.03;1.95;;;;;;;;;;4997412;28;20030;-75
2023/08/22 12:26:49;;;;;;;6.65;1.85;;;;;;;;;;5008409;28;20033;-74
2023/08/22 12:29:15;;;;;;;8.88;1.77;;;;;;;;;;4988737;28;20121;-74
2023/08/22 12:31:41;;;;;;;4.35;1.42;;;;;;;;;;5007026;28;20136;-74
2023/08/22 12:34:08;;;;;;;8.85;1.70;;;;;;;;;;5000505;28;20037;-76
2023/08/22 12:36:34;;;;;;;5.50;1.30;;;;;;;;;;5017986;28;20444;-75
2023/08/22 12:39:00;;;;;;;5.78;1.50;;;;;;;;;;4998117;28;20034;-74
2023/08/22 12:41:27;;;;;;;8.10;1.88;;;;;;;;;;5012185;28;20041;-74
2023/08/22 12:43:53;;;;;;;5.38;1.27;;;;;;;;;;5010205;28;20029;-75
2023/08/22 12:46:19;;;;;;;11.80;1.98;;;;;;;;;;5013886;28;20030;-77
2023/08/22 12:48:45;;;;;;;12.68;1.95;;;;;;;;;;5023652;28;20507;-77
2023/08/22 12:51:11;;;;;;;12.23;1.95;;;;;;;;;;5012024;28;20077;-76
2023/08/22 12:53:38;;;;;;;6.82;1.77;;;;;;;;;;5014713;28;20109;-78
2023/08/22 12:56:04;;;;;;;6.65;1.60;;;;;;;;;;5012405;28;20018;-76
2023/08/22 12:58:30;;;;;;;5.80;1.58;;;;;;;;;;5010767;28;20041;-77
2023/08/22 13:00:57;;;;;;;7.00;1.65;;;;;;;;;;5010493;28;20042;-77
2023/08/22 13:03:24;;;;;;;6.05;1.50;;;;;;;;;;5020747;28;20030;-77
2023/08/22 13:05:50;;;;;;;9.75;2.03;;;;;;;;;;5011994;28;20020;-77
2023/08/22 13:08:16;;;;;;;6.82;1.67;;;;;;;;;;5012191;28;20129;-75
2023/08/22 13:10:42;;;;;;;10.07;2.58;;;;;;;;;;5011699;28;20495;-76
2023/08/22 13:13:08;;;;;;;8.95;2.28;;;;;;;;;;5010154;28;20034;-75
2023/08/22 13:15:34;;;;;;;12.02;2.35;;;;;;;;;;5007011;28;20138;-75
2023/08/22 13:18:01;;;;;;;7.53;1.75;;;;;;;;;;5007973;28;20418;-75
2023/08/22 13:20:27;;;;;;;9.23;2.08;;;;;;;;;;5012090;28;20044;-74
2023/08/22 13:22:54;;;;;;;7.95;2.25;;;;;;;;;;5016944;28;20030;-75
2023/08/22 13:25:20;;;;;;;9.07;1.83;;;;;;;;;;5018355;28;20057;-77
2023/08/22 13:27:46;;;;;;;7.85;2.10;;;;;;;;;;5016752;28;20030;-75
2023/08/22 13:30:13;;;;;;;8.13;2.30;;;;;;;;;;5009131;28;20034;-74
2023/08/22 13:32:40;;;;;;;8.20;2.25;;;;;;;;;;5008581;28;20050;-74
2023/08/22 13:35:08;;;;;;;7.47;2.15;;;;;;;;;;5008982;28;20091;-74
2023/08/22 13:37:35;;;;;;;9.45;2.05;;;;;;;;;;5008947;28;20030;-74
2023/08/22 13:40:04;;;;;;;8.75;1.92;;;;;;;;;;4998362;28;20399;-74
2023/08/22 13:42:31;;;;;;;9.35;2.28;;;;;;;;;;5010389;28;20079;-73
2023/08/22 13:44:57;;;;;;;8.32;2.30;;;;;;;;;;5008853;28;20100;-74
2023/08/22 13:47:24;;;;;;;9.35;2.10;;;;;;;;;;4990055;28;20037;-74
2023/08/22 13:49:51;;;;;;;7.30;2.50;;;;;;;;;;5007484;28;20514;-75
2023/08/22 13:52:17;;;;;;;9.10;2.10;;;;;;;;;;5010211;28;20541;-76
2023/08/22 13:54:43;;;;;;;9.35;1.98;;;;;;;;;;5010524;28;20520;-74
2023/08/22 13:57:10;;;;;;;8.13;1.95;;;;;;;;;;5013541;28;20045;-75
2023/08/22 13:59:37;;;;;;;9.80;2.28;;;;;;;;;;5015062;28;20032;-75
2023/08/22 14:02:05;;;;;;;5.72;1.90;;;;;;;;;;5013683;28;20633;-74
2023/08/22 14:04:32;;;;;;;7.60;2.40;;;;;;;;;;5010149;28;20035;-74
2023/08/22 14:06:58;;;;;;;11.98;2.53;;;;;;;;;;4987808;28;20048;-73
2023/08/22 14:09:24;;;;;;;9.48;2.00;;;;;;;;;;5007893;28;20133;-74
2023/08/22 14:11:50;;;;;;;7.68;2.20;;;;;;;;;;5009251;28;20030;-73
2023/08/22 14:14:16;;;;;;;9.63;1.80;;;;;;;;;;5007304;28;20113;-72
2023/08/22 14:16:42;;;;;;;6.30;1.70;;;;;;;;;;5008335;28;20137;-72
2023/08/22 14:19:10;;;;;;;8.02;1.45;;;;;;;;;;5008981;28;20101;-74
2023/08/22 14:21:36;;;;;;;7.68;1.40;;;;;;;;;;5006654;28;20100;-74
2023/08/22 14:24:02;;;;;;;5.15;1.48;;;;;;;;;;5004862;28;20052;-74
2023/08/22 14:26:28;;;;;;;5.35;1.50;;;;;;;;;;5004521;28;20038;-74
2023/08/22 14:28:56;;;;;;;9.55;2.60;;;;;;;;;;4990629;28;20575;-74
2023/08/22 14:31:22;;;;;;;6.63;1.40;;;;;;;;;;5009398;28;20045;-73